sensor_id;sensor_type;location;lat;lon;timestamp;P1;durP1;ratioP1;P2;durP2;ratioP2
43620;SDS011;29213;50.770;7.298;2022-10-31T00:01:15;15.00;;;8.63;;
43620;SDS011;29213;50.770;7.298;2022-10-31T00:03:46;13.25;;;9.43;;
43620;SDS011;29213;50.770;7.298;2022-10-31T00:06:12;13.77;;;9.25;;
43620;SDS011;29213;50.770;7.298;2022-10-31T00:08:38;13.80;;;9.70;;
43620;SDS011;29213;50.770;7.298;2022-10-31T00:11:03;15.38;;;10.85;;
43620;SDS011;29213;50.770;7.298;2022-10-31T00:13:29;16.85;;;12.25;;
43620;SDS011;29213;50.770;7.298;2022-10-31T00:15:54;18.63;;;14.70;;
43620;SDS011;29213;50.770;7.298;2022-10-31T00:18:28;21.60;;;15.50;;
43620;SDS011;29213;50.770;7.298;2022-10-31T00:21:00;21.52;;;16.05;;
43620;SDS011;29213;50.770;7.298;2022-10-31T00:23:26;18.00;;;14.68;;
43620;SDS011;29213;50.770;7.298;2022-10-31T00:25:51;17.50;;;14.70;;
43620;SDS011;29213;50.770;7.298;2022-10-31T00:28:17;22.67;;;16.58;;
43620;SDS011;29213;50.770;7.298;2022-10-31T00:30:42;19.83;;;16.52;;
43620;SDS011;29213;50.770;7.298;2022-10-31T00:33:07;21.90;;;16.45;;
43620;SDS011;29213;50.770;7.298;2022-10-31T00:35:33;18.80;;;13.60;;
43620;SDS011;29213;50.770;7.298;2022-10-31T00:37:58;24.20;;;15.35;;
43620;SDS011;29213;50.770;7.298;2022-10-31T00:40:24;21.42;;;16.17;;
43620;SDS011;29213;50.770;7.298;2022-10-31T00:42:49;20.50;;;15.75;;
43620;SDS011;29213;50.770;7.298;2022-10-31T00:45:14;17.45;;;14.25;;
43620;SDS011;29213;50.770;7.298;2022-10-31T00:47:40;18.67;;;14.02;;
43620;SDS011;29213;50.770;7.298;2022-10-31T00:50:06;17.10;;;14.60;;
43620;SDS011;29213;50.770;7.298;2022-10-31T00:52:32;19.50;;;14.98;;
43620;SDS011;29213;50.770;7.298;2022-10-31T00:54:58;22.33;;;15.55;;
43620;SDS011;29213;50.770;7.298;2022-10-31T00:57:23;19.42;;;14.07;;
43620;SDS011;29213;50.770;7.298;2022-10-31T00:59:48;19.92;;;14.48;;
43620;SDS011;29213;50.770;7.298;2022-10-31T01:02:20;17.00;;;13.32;;
43620;SDS011;29213;50.770;7.298;2022-10-31T01:04:45;15.35;;;12.80;;
43620;SDS011;29213;50.770;7.298;2022-10-31T01:07:11;23.17;;;14.95;;
43620;SDS011;29213;50.770;7.298;2022-10-31T01:09:38;16.58;;;12.38;;
43620;SDS011;29213;50.770;7.298;2022-10-31T01:12:03;20.05;;;14.30;;
43620;SDS011;29213;50.770;7.298;2022-10-31T01:14:44;15.13;;;12.65;;
43620;SDS011;29213;50.770;7.298;2022-10-31T01:17:10;15.07;;;12.20;;
43620;SDS011;29213;50.770;7.298;2022-10-31T01:19:36;17.58;;;13.70;;
43620;SDS011;29213;50.770;7.298;2022-10-31T01:22:02;19.05;;;12.30;;
43620;SDS011;29213;50.770;7.298;2022-10-31T01:24:27;18.25;;;12.27;;
43620;SDS011;29213;50.770;7.298;2022-10-31T01:26:53;21.77;;;12.60;;
43620;SDS011;29213;50.770;7.298;2022-10-31T01:29:18;17.73;;;12.82;;
43620;SDS011;29213;50.770;7.298;2022-10-31T01:31:44;14.80;;;11.38;;
43620;SDS011;29213;50.770;7.298;2022-10-31T01:34:14;13.35;;;11.30;;
43620;SDS011;29213;50.770;7.298;2022-10-31T01:36:42;17.80;;;12.05;;
43620;SDS011;29213;50.770;7.298;2022-10-31T01:39:10;16.52;;;11.05;;
43620;SDS011;29213;50.770;7.298;2022-10-31T01:41:41;13.95;;;10.40;;
43620;SDS011;29213;50.770;7.298;2022-10-31T01:49:13;12.10;;;9.45;;
43620;SDS011;29213;50.770;7.298;2022-10-31T01:51:45;12.20;;;8.55;;
43620;SDS011;29213;50.770;7.298;2022-10-31T01:54:16;11.63;;;8.73;;
43620;SDS011;29213;50.770;7.298;2022-10-31T01:56:48;11.95;;;8.20;;
43620;SDS011;29213;50.770;7.298;2022-10-31T01:59:19;11.90;;;8.02;;
43620;SDS011;29213;50.770;7.298;2022-10-31T02:01:46;13.30;;;8.80;;
43620;SDS011;29213;50.770;7.298;2022-10-31T02:04:12;13.65;;;9.75;;
43620;SDS011;29213;50.770;7.298;2022-10-31T02:06:56;15.50;;;10.10;;
43620;SDS011;29213;50.770;7.298;2022-10-31T02:09:25;16.38;;;9.77;;
43620;SDS011;29213;50.770;7.298;2022-10-31T02:11:52;16.25;;;8.50;;
43620;SDS011;29213;50.770;7.298;2022-10-31T02:14:22;11.17;;;8.17;;
43620;SDS011;29213;50.770;7.298;2022-10-31T02:16:50;13.40;;;8.60;;
43620;SDS011;29213;50.770;7.298;2022-10-31T02:19:18;13.82;;;8.88;;
43620;SDS011;29213;50.770;7.298;2022-10-31T02:22:12;13.60;;;8.38;;
43620;SDS011;29213;50.770;7.298;2022-10-31T02:30:40;14.90;;;7.68;;
43620;SDS011;29213;50.770;7.298;2022-10-31T02:35:50;11.68;;;6.40;;
43620;SDS011;29213;50.770;7.298;2022-10-31T02:39:06;11.10;;;7.00;;
43620;SDS011;29213;50.770;7.298;2022-10-31T02:46:27;9.00;;;5.70;;
43620;SDS011;29213;50.770;7.298;2022-10-31T02:49:04;8.90;;;5.80;;
43620;SDS011;29213;50.770;7.298;2022-10-31T02:51:36;9.60;;;5.68;;
43620;SDS011;29213;50.770;7.298;2022-10-31T02:54:02;11.00;;;6.72;;
43620;SDS011;29213;50.770;7.298;2022-10-31T02:56:27;8.73;;;6.07;;
43620;SDS011;29213;50.770;7.298;2022-10-31T02:59:02;9.00;;;4.95;;
43620;SDS011;29213;50.770;7.298;2022-10-31T03:07:00;10.40;;;5.38;;
43620;SDS011;29213;50.770;7.298;2022-10-31T03:09:38;8.40;;;4.97;;
43620;SDS011;29213;50.770;7.298;2022-10-31T03:12:11;9.88;;;5.60;;
43620;SDS011;29213;50.770;7.298;2022-10-31T03:14:52;10.32;;;5.78;;
43620;SDS011;29213;50.770;7.298;2022-10-31T03:20:30;9.02;;;5.45;;
43620;SDS011;29213;50.770;7.298;2022-10-31T03:23:02;11.30;;;5.20;;
43620;SDS011;29213;50.770;7.298;2022-10-31T03:25:31;7.32;;;5.40;;
43620;SDS011;29213;50.770;7.298;2022-10-31T03:28:00;8.48;;;5.63;;
43620;SDS011;29213;50.770;7.298;2022-10-31T03:30:27;9.50;;;5.50;;
43620;SDS011;29213;50.770;7.298;2022-10-31T03:32:53;10.23;;;5.20;;
43620;SDS011;29213;50.770;7.298;2022-10-31T03:35:22;9.23;;;5.18;;
43620;SDS011;29213;50.770;7.298;2022-10-31T03:37:51;10.50;;;5.22;;
43620;SDS011;29213;50.770;7.298;2022-10-31T03:40:19;9.15;;;5.00;;
43620;SDS011;29213;50.770;7.298;2022-10-31T03:42:54;8.38;;;5.35;;
43620;SDS011;29213;50.770;7.298;2022-10-31T03:45:25;6.82;;;4.90;;
43620;SDS011;29213;50.770;7.298;2022-10-31T03:47:53;7.50;;;5.57;;
43620;SDS011;29213;50.770;7.298;2022-10-31T03:50:20;9.10;;;4.85;;
43620;SDS011;29213;50.770;7.298;2022-10-31T03:52:50;8.80;;;5.38;;
43620;SDS011;29213;50.770;7.298;2022-10-31T03:58:37;8.75;;;5.18;;
43620;SDS011;29213;50.770;7.298;2022-10-31T04:01:08;7.85;;;4.88;;
43620;SDS011;29213;50.770;7.298;2022-10-31T04:03:37;8.10;;;4.97;;
43620;SDS011;29213;50.770;7.298;2022-10-31T04:06:08;8.35;;;5.07;;
43620;SDS011;29213;50.770;7.298;2022-10-31T04:08:41;8.98;;;5.20;;
43620;SDS011;29213;50.770;7.298;2022-10-31T04:11:10;7.93;;;5.05;;
43620;SDS011;29213;50.770;7.298;2022-10-31T04:13:38;14.13;;;5.40;;
43620;SDS011;29213;50.770;7.298;2022-10-31T04:16:05;10.20;;;5.40;;
43620;SDS011;29213;50.770;7.298;2022-10-31T04:18:31;7.13;;;5.00;;
43620;SDS011;29213;50.770;7.298;2022-10-31T04:21:15;8.70;;;5.28;;
43620;SDS011;29213;50.770;7.298;2022-10-31T04:23:41;9.02;;;5.20;;
43620;SDS011;29213;50.770;7.298;2022-10-31T04:26:07;8.02;;;4.80;;
43620;SDS011;29213;50.770;7.298;2022-10-31T04:28:35;9.73;;;4.82;;
43620;SDS011;29213;50.770;7.298;2022-10-31T04:31:01;10.25;;;4.95;;
43620;SDS011;29213;50.770;7.298;2022-10-31T04:33:26;9.10;;;5.00;;
43620;SDS011;29213;50.770;7.298;2022-10-31T04:35:52;9.70;;;5.50;;
43620;SDS011;29213;50.770;7.298;2022-10-31T04:38:17;9.18;;;5.60;;
43620;SDS011;29213;50.770;7.298;2022-10-31T04:40:42;9.52;;;4.90;;
43620;SDS011;29213;50.770;7.298;2022-10-31T04:43:09;8.65;;;4.82;;
43620;SDS011;29213;50.770;7.298;2022-10-31T04:45:34;10.48;;;4.72;;
43620;SDS011;29213;50.770;7.298;2022-10-31T04:48:00;11.55;;;4.45;;
43620;SDS011;29213;50.770;7.298;2022-10-31T04:50:25;8.48;;;4.63;;
43620;SDS011;29213;50.770;7.298;2022-10-31T04:52:51;8.50;;;4.70;;
43620;SDS011;29213;50.770;7.298;2022-10-31T04:55:16;9.57;;;5.55;;
43620;SDS011;29213;50.770;7.298;2022-10-31T04:57:42;9.07;;;5.43;;
43620;SDS011;29213;50.770;7.298;2022-10-31T05:00:09;11.77;;;5.47;;
43620;SDS011;29213;50.770;7.298;2022-10-31T05:02:42;7.93;;;4.53;;
43620;SDS011;29213;50.770;7.298;2022-10-31T05:05:19;8.60;;;5.50;;
43620;SDS011;29213;50.770;7.298;2022-10-31T05:07:48;8.00;;;4.65;;
43620;SDS011;29213;50.770;7.298;2022-10-31T05:10:16;9.07;;;4.70;;
43620;SDS011;29213;50.770;7.298;2022-10-31T05:12:50;8.45;;;4.50;;
43620;SDS011;29213;50.770;7.298;2022-10-31T05:15:17;8.40;;;4.55;;
43620;SDS011;29213;50.770;7.298;2022-10-31T05:17:44;8.48;;;5.18;;
43620;SDS011;29213;50.770;7.298;2022-10-31T05:20:10;8.38;;;4.38;;
43620;SDS011;29213;50.770;7.298;2022-10-31T05:22:36;7.20;;;4.50;;
43620;SDS011;29213;50.770;7.298;2022-10-31T05:25:02;8.48;;;4.90;;
43620;SDS011;29213;50.770;7.298;2022-10-31T05:27:27;12.13;;;5.90;;
43620;SDS011;29213;50.770;7.298;2022-10-31T05:29:53;10.68;;;5.72;;
43620;SDS011;29213;50.770;7.298;2022-10-31T05:32:18;10.07;;;5.50;;
43620;SDS011;29213;50.770;7.298;2022-10-31T05:34:43;7.80;;;4.57;;
43620;SDS011;29213;50.770;7.298;2022-10-31T05:37:09;7.47;;;4.95;;
43620;SDS011;29213;50.770;7.298;2022-10-31T05:39:34;8.68;;;5.38;;
43620;SDS011;29213;50.770;7.298;2022-10-31T05:42:00;9.15;;;4.90;;
43620;SDS011;29213;50.770;7.298;2022-10-31T05:44:26;10.32;;;5.53;;
43620;SDS011;29213;50.770;7.298;2022-10-31T05:46:51;9.57;;;5.47;;
43620;SDS011;29213;50.770;7.298;2022-10-31T05:49:17;6.55;;;4.93;;
43620;SDS011;29213;50.770;7.298;2022-10-31T05:51:42;10.48;;;5.32;;
43620;SDS011;29213;50.770;7.298;2022-10-31T05:54:08;8.48;;;5.15;;
43620;SDS011;29213;50.770;7.298;2022-10-31T05:56:33;8.65;;;5.32;;
43620;SDS011;29213;50.770;7.298;2022-10-31T05:58:59;8.85;;;4.53;;
43620;SDS011;29213;50.770;7.298;2022-10-31T06:01:24;9.85;;;4.80;;
43620;SDS011;29213;50.770;7.298;2022-10-31T06:03:49;7.25;;;4.40;;
43620;SDS011;29213;50.770;7.298;2022-10-31T06:06:15;8.90;;;4.75;;
43620;SDS011;29213;50.770;7.298;2022-10-31T06:08:40;8.23;;;4.53;;
43620;SDS011;29213;50.770;7.298;2022-10-31T06:11:06;10.52;;;5.10;;
43620;SDS011;29213;50.770;7.298;2022-10-31T06:13:32;7.55;;;4.72;;
43620;SDS011;29213;50.770;7.298;2022-10-31T06:15:58;7.93;;;4.35;;
43620;SDS011;29213;50.770;7.298;2022-10-31T06:18:23;7.22;;;4.65;;
43620;SDS011;29213;50.770;7.298;2022-10-31T06:20:48;8.50;;;5.05;;
43620;SDS011;29213;50.770;7.298;2022-10-31T06:23:14;7.40;;;4.40;;
43620;SDS011;29213;50.770;7.298;2022-10-31T06:25:39;8.07;;;4.60;;
43620;SDS011;29213;50.770;7.298;2022-10-31T06:28:05;11.55;;;5.22;;
43620;SDS011;29213;50.770;7.298;2022-10-31T06:33:02;11.13;;;5.47;;
43620;SDS011;29213;50.770;7.298;2022-10-31T06:35:28;8.50;;;5.13;;
43620;SDS011;29213;50.770;7.298;2022-10-31T06:37:54;9.18;;;6.25;;
43620;SDS011;29213;50.770;7.298;2022-10-31T06:40:19;10.90;;;6.55;;
43620;SDS011;29213;50.770;7.298;2022-10-31T06:43:03;10.93;;;6.45;;
43620;SDS011;29213;50.770;7.298;2022-10-31T06:45:32;8.65;;;6.03;;
43620;SDS011;29213;50.770;7.298;2022-10-31T06:47:59;8.13;;;6.07;;
43620;SDS011;29213;50.770;7.298;2022-10-31T06:50:24;8.07;;;5.45;;
43620;SDS011;29213;50.770;7.298;2022-10-31T06:52:53;7.28;;;4.95;;
43620;SDS011;29213;50.770;7.298;2022-10-31T06:55:20;14.38;;;6.07;;
43620;SDS011;29213;50.770;7.298;2022-10-31T06:57:59;12.90;;;6.47;;
43620;SDS011;29213;50.770;7.298;2022-10-31T07:00:26;10.32;;;5.45;;
43620;SDS011;29213;50.770;7.298;2022-10-31T07:03:00;12.88;;;6.38;;
43620;SDS011;29213;50.770;7.298;2022-10-31T07:05:30;8.88;;;5.57;;
43620;SDS011;29213;50.770;7.298;2022-10-31T07:07:56;9.82;;;5.57;;
43620;SDS011;29213;50.770;7.298;2022-10-31T07:10:23;9.15;;;5.63;;
43620;SDS011;29213;50.770;7.298;2022-10-31T07:12:57;9.65;;;5.97;;
43620;SDS011;29213;50.770;7.298;2022-10-31T07:15:24;10.68;;;6.35;;
43620;SDS011;29213;50.770;7.298;2022-10-31T07:17:51;11.65;;;7.15;;
43620;SDS011;29213;50.770;7.298;2022-10-31T07:20:17;10.70;;;6.85;;
43620;SDS011;29213;50.770;7.298;2022-10-31T07:22:42;11.35;;;6.53;;
43620;SDS011;29213;50.770;7.298;2022-10-31T07:25:08;10.32;;;5.95;;
43620;SDS011;29213;50.770;7.298;2022-10-31T07:27:35;8.52;;;5.03;;
43620;SDS011;29213;50.770;7.298;2022-10-31T07:30:04;8.07;;;5.45;;
43620;SDS011;29213;50.770;7.298;2022-10-31T07:32:46;8.65;;;5.32;;
43620;SDS011;29213;50.770;7.298;2022-10-31T07:35:14;10.68;;;5.93;;
43620;SDS011;29213;50.770;7.298;2022-10-31T07:37:44;9.80;;;5.75;;
43620;SDS011;29213;50.770;7.298;2022-10-31T07:40:09;12.35;;;6.82;;
43620;SDS011;29213;50.770;7.298;2022-10-31T07:42:36;12.73;;;6.88;;
43620;SDS011;29213;50.770;7.298;2022-10-31T07:45:03;10.55;;;7.80;;
43620;SDS011;29213;50.770;7.298;2022-10-31T07:47:45;13.85;;;7.90;;
43620;SDS011;29213;50.770;7.298;2022-10-31T07:50:14;10.32;;;6.28;;
43620;SDS011;29213;50.770;7.298;2022-10-31T07:52:41;10.10;;;5.40;;
43620;SDS011;29213;50.770;7.298;2022-10-31T07:55:07;9.80;;;6.13;;
43620;SDS011;29213;50.770;7.298;2022-10-31T07:57:33;10.60;;;5.68;;
43620;SDS011;29213;50.770;7.298;2022-10-31T07:59:58;11.90;;;6.32;;
43620;SDS011;29213;50.770;7.298;2022-10-31T08:02:24;11.35;;;6.65;;
43620;SDS011;29213;50.770;7.298;2022-10-31T08:04:49;10.73;;;6.20;;
43620;SDS011;29213;50.770;7.298;2022-10-31T08:07:15;12.43;;;6.20;;
43620;SDS011;29213;50.770;7.298;2022-10-31T08:09:40;14.82;;;6.15;;
43620;SDS011;29213;50.770;7.298;2022-10-31T08:12:05;10.70;;;5.78;;
43620;SDS011;29213;50.770;7.298;2022-10-31T08:14:31;14.90;;;7.20;;
43620;SDS011;29213;50.770;7.298;2022-10-31T08:16:56;9.48;;;5.65;;
43620;SDS011;29213;50.770;7.298;2022-10-31T08:19:22;12.52;;;5.97;;
43620;SDS011;29213;50.770;7.298;2022-10-31T08:21:50;9.00;;;5.28;;
43620;SDS011;29213;50.770;7.298;2022-10-31T08:24:16;11.90;;;6.05;;
43620;SDS011;29213;50.770;7.298;2022-10-31T08:26:42;10.80;;;5.82;;
43620;SDS011;29213;50.770;7.298;2022-10-31T08:29:07;9.45;;;5.43;;
43620;SDS011;29213;50.770;7.298;2022-10-31T08:31:32;8.70;;;5.22;;
43620;SDS011;29213;50.770;7.298;2022-10-31T08:33:58;7.35;;;4.90;;
43620;SDS011;29213;50.770;7.298;2022-10-31T08:36:23;7.07;;;4.75;;
43620;SDS011;29213;50.770;7.298;2022-10-31T08:38:49;7.53;;;4.80;;
43620;SDS011;29213;50.770;7.298;2022-10-31T08:41:15;9.52;;;5.30;;
43620;SDS011;29213;50.770;7.298;2022-10-31T08:43:40;9.65;;;5.53;;
43620;SDS011;29213;50.770;7.298;2022-10-31T08:46:06;7.72;;;5.00;;
43620;SDS011;29213;50.770;7.298;2022-10-31T08:48:32;8.73;;;5.07;;
43620;SDS011;29213;50.770;7.298;2022-10-31T08:50:59;7.57;;;5.07;;
43620;SDS011;29213;50.770;7.298;2022-10-31T08:53:25;12.98;;;5.63;;
43620;SDS011;29213;50.770;7.298;2022-10-31T08:55:53;8.35;;;5.40;;
43620;SDS011;29213;50.770;7.298;2022-10-31T08:58:20;11.20;;;5.88;;
43620;SDS011;29213;50.770;7.298;2022-10-31T09:00:48;11.00;;;6.38;;
43620;SDS011;29213;50.770;7.298;2022-10-31T09:03:16;12.27;;;6.47;;
43620;SDS011;29213;50.770;7.298;2022-10-31T09:05:47;10.00;;;6.13;;
43620;SDS011;29213;50.770;7.298;2022-10-31T09:08:14;12.68;;;6.18;;
43620;SDS011;29213;50.770;7.298;2022-10-31T09:10:40;11.75;;;6.60;;
43620;SDS011;29213;50.770;7.298;2022-10-31T09:13:08;14.45;;;6.93;;
43620;SDS011;29213;50.770;7.298;2022-10-31T09:15:37;11.63;;;6.47;;
43620;SDS011;29213;50.770;7.298;2022-10-31T09:18:05;13.65;;;6.68;;
43620;SDS011;29213;50.770;7.298;2022-10-31T09:20:35;12.65;;;6.38;;
43620;SDS011;29213;50.770;7.298;2022-10-31T09:23:03;9.88;;;6.13;;
43620;SDS011;29213;50.770;7.298;2022-10-31T09:25:31;8.73;;;6.30;;
43620;SDS011;29213;50.770;7.298;2022-10-31T09:27:59;12.68;;;5.88;;
43620;SDS011;29213;50.770;7.298;2022-10-31T09:30:26;11.88;;;6.50;;
43620;SDS011;29213;50.770;7.298;2022-10-31T09:32:56;11.90;;;6.93;;
43620;SDS011;29213;50.770;7.298;2022-10-31T09:35:24;18.38;;;6.57;;
43620;SDS011;29213;50.770;7.298;2022-10-31T09:38:00;11.88;;;5.57;;
43620;SDS011;29213;50.770;7.298;2022-10-31T09:40:39;11.73;;;6.45;;
43620;SDS011;29213;50.770;7.298;2022-10-31T09:43:09;9.25;;;5.70;;
43620;SDS011;29213;50.770;7.298;2022-10-31T09:46:01;12.38;;;6.20;;
43620;SDS011;29213;50.770;7.298;2022-10-31T09:51:44;9.82;;;6.13;;
43620;SDS011;29213;50.770;7.298;2022-10-31T09:56:46;14.00;;;7.05;;
43620;SDS011;29213;50.770;7.298;2022-10-31T09:59:17;14.98;;;7.38;;
43620;SDS011;29213;50.770;7.298;2022-10-31T10:05:03;13.65;;;7.13;;
43620;SDS011;29213;50.770;7.298;2022-10-31T10:10:32;11.90;;;6.57;;
43620;SDS011;29213;50.770;7.298;2022-10-31T10:19:33;12.98;;;7.00;;
43620;SDS011;29213;50.770;7.298;2022-10-31T10:25:21;13.23;;;7.10;;
43620;SDS011;29213;50.770;7.298;2022-10-31T10:30:57;14.68;;;7.38;;
43620;SDS011;29213;50.770;7.298;2022-10-31T10:34:16;13.13;;;6.65;;
43620;SDS011;29213;50.770;7.298;2022-10-31T10:39:46;12.43;;;6.60;;
43620;SDS011;29213;50.770;7.298;2022-10-31T10:42:19;13.65;;;6.68;;
43620;SDS011;29213;50.770;7.298;2022-10-31T10:45:14;15.23;;;7.30;;
43620;SDS011;29213;50.770;7.298;2022-10-31T10:51:15;11.93;;;7.25;;
43620;SDS011;29213;50.770;7.298;2022-10-31T10:54:09;13.50;;;7.38;;
43620;SDS011;29213;50.770;7.298;2022-10-31T10:59:30;15.35;;;7.32;;
43620;SDS011;29213;50.770;7.298;2022-10-31T11:01:56;15.90;;;7.53;;
43620;SDS011;29213;50.770;7.298;2022-10-31T11:04:32;11.40;;;6.80;;
43620;SDS011;29213;50.770;7.298;2022-10-31T11:09:29;11.57;;;6.20;;
43620;SDS011;29213;50.770;7.298;2022-10-31T11:11:58;10.65;;;6.00;;
43620;SDS011;29213;50.770;7.298;2022-10-31T11:14:25;11.38;;;6.30;;
43620;SDS011;29213;50.770;7.298;2022-10-31T11:22:39;10.50;;;6.20;;
43620;SDS011;29213;50.770;7.298;2022-10-31T11:25:21;11.98;;;5.70;;
43620;SDS011;29213;50.770;7.298;2022-10-31T11:31:07;8.93;;;5.78;;
43620;SDS011;29213;50.770;7.298;2022-10-31T11:33:38;12.20;;;5.97;;
43620;SDS011;29213;50.770;7.298;2022-10-31T11:36:24;13.10;;;6.22;;
43620;SDS011;29213;50.770;7.298;2022-10-31T11:39:02;9.65;;;6.22;;
43620;SDS011;29213;50.770;7.298;2022-10-31T11:41:33;9.73;;;5.30;;
43620;SDS011;29213;50.770;7.298;2022-10-31T11:44:16;10.48;;;5.13;;
43620;SDS011;29213;50.770;7.298;2022-10-31T11:49:42;8.88;;;5.22;;
43620;SDS011;29213;50.770;7.298;2022-10-31T11:52:14;9.65;;;4.85;;
43620;SDS011;29213;50.770;7.298;2022-10-31T11:54:51;9.75;;;4.97;;
43620;SDS011;29213;50.770;7.298;2022-10-31T11:57:28;10.23;;;5.00;;
43620;SDS011;29213;50.770;7.298;2022-10-31T12:00:02;11.80;;;5.57;;
43620;SDS011;29213;50.770;7.298;2022-10-31T12:02:37;10.73;;;5.70;;
43620;SDS011;29213;50.770;7.298;2022-10-31T12:08:07;10.57;;;5.28;;
43620;SDS011;29213;50.770;7.298;2022-10-31T12:16:02;11.32;;;5.20;;
43620;SDS011;29213;50.770;7.298;2022-10-31T12:19:05;14.82;;;5.75;;
43620;SDS011;29213;50.770;7.298;2022-10-31T12:22:04;15.07;;;5.40;;
43620;SDS011;29213;50.770;7.298;2022-10-31T12:30:20;14.48;;;5.53;;
43620;SDS011;29213;50.770;7.298;2022-10-31T12:58:28;9.35;;;4.85;;
43620;SDS011;29213;50.770;7.298;2022-10-31T13:01:07;13.40;;;4.93;;
43620;SDS011;29213;50.770;7.298;2022-10-31T13:06:42;9.52;;;4.15;;
43620;SDS011;29213;50.770;7.298;2022-10-31T13:09:20;8.40;;;4.40;;
43620;SDS011;29213;50.770;7.298;2022-10-31T13:11:56;7.75;;;4.07;;
43620;SDS011;29213;50.770;7.298;2022-10-31T13:14:27;9.65;;;4.43;;
43620;SDS011;29213;50.770;7.298;2022-10-31T13:17:00;7.57;;;4.50;;
43620;SDS011;29213;50.770;7.298;2022-10-31T13:27:30;8.10;;;4.28;;
43620;SDS011;29213;50.770;7.298;2022-10-31T13:30:14;11.13;;;5.20;;
43620;SDS011;29213;50.770;7.298;2022-10-31T13:32:55;10.40;;;4.55;;
43620;SDS011;29213;50.770;7.298;2022-10-31T13:35:28;26.17;;;14.05;;
43620;SDS011;29213;50.770;7.298;2022-10-31T13:38:15;21.23;;;9.48;;
43620;SDS011;29213;50.770;7.298;2022-10-31T13:40:50;10.77;;;4.45;;
43620;SDS011;29213;50.770;7.298;2022-10-31T13:43:28;9.63;;;3.97;;
43620;SDS011;29213;50.770;7.298;2022-10-31T13:46:01;9.85;;;3.80;;
43620;SDS011;29213;50.770;7.298;2022-10-31T13:52:11;9.70;;;3.78;;
43620;SDS011;29213;50.770;7.298;2022-10-31T13:54:48;8.95;;;3.70;;
43620;SDS011;29213;50.770;7.298;2022-10-31T14:00:07;6.07;;;3.58;;
43620;SDS011;29213;50.770;7.298;2022-10-31T14:02:51;16.95;;;9.23;;
43620;SDS011;29213;50.770;7.298;2022-10-31T14:07:54;9.70;;;4.50;;
43620;SDS011;29213;50.770;7.298;2022-10-31T14:13:03;6.97;;;4.05;;
43620;SDS011;29213;50.770;7.298;2022-10-31T14:15:30;13.45;;;4.70;;
43620;SDS011;29213;50.770;7.298;2022-10-31T14:17:57;11.60;;;4.43;;
43620;SDS011;29213;50.770;7.298;2022-10-31T14:22:52;11.32;;;4.45;;
43620;SDS011;29213;50.770;7.298;2022-10-31T14:25:25;12.95;;;4.45;;
43620;SDS011;29213;50.770;7.298;2022-10-31T14:27:51;12.10;;;4.45;;
43620;SDS011;29213;50.770;7.298;2022-10-31T14:30:20;9.13;;;4.38;;
43620;SDS011;29213;50.770;7.298;2022-10-31T14:35:53;9.57;;;4.32;;
43620;SDS011;29213;50.770;7.298;2022-10-31T14:41:41;9.57;;;4.25;;
43620;SDS011;29213;50.770;7.298;2022-10-31T14:50:54;7.63;;;3.50;;
43620;SDS011;29213;50.770;7.298;2022-10-31T14:56:01;6.80;;;3.80;;
43620;SDS011;29213;50.770;7.298;2022-10-31T14:58:29;7.32;;;3.85;;
43620;SDS011;29213;50.770;7.298;2022-10-31T15:00:57;9.80;;;4.10;;
43620;SDS011;29213;50.770;7.298;2022-10-31T15:03:33;8.05;;;3.92;;
43620;SDS011;29213;50.770;7.298;2022-10-31T15:06:05;7.53;;;3.50;;
43620;SDS011;29213;50.770;7.298;2022-10-31T15:08:44;9.45;;;3.83;;
43620;SDS011;29213;50.770;7.298;2022-10-31T15:11:15;8.55;;;3.80;;
43620;SDS011;29213;50.770;7.298;2022-10-31T15:13:55;8.65;;;4.07;;
43620;SDS011;29213;50.770;7.298;2022-10-31T15:16:25;9.98;;;3.92;;
43620;SDS011;29213;50.770;7.298;2022-10-31T15:19:07;13.10;;;4.22;;
43620;SDS011;29213;50.770;7.298;2022-10-31T15:24:15;7.40;;;4.00;;
43620;SDS011;29213;50.770;7.298;2022-10-31T15:26:44;8.70;;;4.03;;
43620;SDS011;29213;50.770;7.298;2022-10-31T15:29:21;7.85;;;4.15;;
43620;SDS011;29213;50.770;7.298;2022-10-31T15:31:56;7.38;;;3.60;;
43620;SDS011;29213;50.770;7.298;2022-10-31T15:37:23;8.25;;;3.40;;
43620;SDS011;29213;50.770;7.298;2022-10-31T15:40:05;8.05;;;3.70;;
43620;SDS011;29213;50.770;7.298;2022-10-31T15:42:39;7.90;;;3.80;;
43620;SDS011;29213;50.770;7.298;2022-10-31T15:45:22;8.45;;;4.15;;
43620;SDS011;29213;50.770;7.298;2022-10-31T15:48:03;7.88;;;3.70;;
43620;SDS011;29213;50.770;7.298;2022-10-31T15:50:46;9.27;;;3.95;;
43620;SDS011;29213;50.770;7.298;2022-10-31T15:53:26;8.98;;;4.22;;
43620;SDS011;29213;50.770;7.298;2022-10-31T15:58:59;7.30;;;3.90;;
43620;SDS011;29213;50.770;7.298;2022-10-31T16:01:29;9.25;;;4.60;;
43620;SDS011;29213;50.770;7.298;2022-10-31T16:06:27;10.60;;;4.30;;
43620;SDS011;29213;50.770;7.298;2022-10-31T16:08:52;10.05;;;4.30;;
43620;SDS011;29213;50.770;7.298;2022-10-31T16:11:35;11.60;;;4.50;;
43620;SDS011;29213;50.770;7.298;2022-10-31T16:14:06;7.53;;;3.88;;
43620;SDS011;29213;50.770;7.298;2022-10-31T16:16:42;9.68;;;4.15;;
43620;SDS011;29213;50.770;7.298;2022-10-31T16:19:28;7.93;;;3.75;;
43620;SDS011;29213;50.770;7.298;2022-10-31T16:22:08;9.77;;;4.05;;
43620;SDS011;29213;50.770;7.298;2022-10-31T16:27:25;9.98;;;4.35;;
43620;SDS011;29213;50.770;7.298;2022-10-31T16:33:01;14.75;;;6.60;;
43620;SDS011;29213;50.770;7.298;2022-10-31T16:35:41;11.68;;;5.82;;
43620;SDS011;29213;50.770;7.298;2022-10-31T16:38:15;11.95;;;5.50;;
43620;SDS011;29213;50.770;7.298;2022-10-31T16:40:44;12.40;;;5.78;;
43620;SDS011;29213;50.770;7.298;2022-10-31T16:45:48;9.07;;;5.10;;
43620;SDS011;29213;50.770;7.298;2022-10-31T16:48:20;9.60;;;5.10;;
43620;SDS011;29213;50.770;7.298;2022-10-31T16:50:49;10.18;;;5.20;;
43620;SDS011;29213;50.770;7.298;2022-10-31T16:53:18;9.70;;;5.50;;
43620;SDS011;29213;50.770;7.298;2022-10-31T16:55:46;12.35;;;6.13;;
43620;SDS011;29213;50.770;7.298;2022-10-31T16:58:21;12.30;;;6.40;;
43620;SDS011;29213;50.770;7.298;2022-10-31T17:00:49;13.18;;;6.85;;
43620;SDS011;29213;50.770;7.298;2022-10-31T17:03:15;11.18;;;6.88;;
43620;SDS011;29213;50.770;7.298;2022-10-31T17:05:44;16.90;;;7.10;;
43620;SDS011;29213;50.770;7.298;2022-10-31T17:12:21;14.57;;;6.65;;
43620;SDS011;29213;50.770;7.298;2022-10-31T17:14:50;13.23;;;7.75;;
43620;SDS011;29213;50.770;7.298;2022-10-31T17:17:19;14.68;;;7.47;;
43620;SDS011;29213;50.770;7.298;2022-10-31T17:19:44;12.45;;;6.72;;
43620;SDS011;29213;50.770;7.298;2022-10-31T17:22:15;11.45;;;6.50;;
43620;SDS011;29213;50.770;7.298;2022-10-31T17:24:41;14.02;;;7.55;;
43620;SDS011;29213;50.770;7.298;2022-10-31T17:27:08;16.88;;;8.77;;
43620;SDS011;29213;50.770;7.298;2022-10-31T17:29:33;10.68;;;6.80;;
43620;SDS011;29213;50.770;7.298;2022-10-31T17:31:59;14.93;;;8.70;;
43620;SDS011;29213;50.770;7.298;2022-10-31T17:34:27;11.90;;;8.38;;
43620;SDS011;29213;50.770;7.298;2022-10-31T17:36:52;15.00;;;7.53;;
43620;SDS011;29213;50.770;7.298;2022-10-31T17:39:18;12.48;;;7.05;;
43620;SDS011;29213;50.770;7.298;2022-10-31T17:41:44;11.82;;;7.28;;
43620;SDS011;29213;50.770;7.298;2022-10-31T17:44:11;17.48;;;8.77;;
43620;SDS011;29213;50.770;7.298;2022-10-31T17:46:37;11.48;;;7.60;;
43620;SDS011;29213;50.770;7.298;2022-10-31T17:49:03;13.15;;;7.72;;
43620;SDS011;29213;50.770;7.298;2022-10-31T17:51:33;11.50;;;7.05;;
43620;SDS011;29213;50.770;7.298;2022-10-31T17:53:59;11.15;;;6.63;;
43620;SDS011;29213;50.770;7.298;2022-10-31T17:56:24;14.00;;;7.78;;
43620;SDS011;29213;50.770;7.298;2022-10-31T17:58:50;14.93;;;7.47;;
43620;SDS011;29213;50.770;7.298;2022-10-31T18:01:16;15.40;;;8.18;;